sensor_id;sensor_type;location;lat;lon;timestamp;pressure;altitude;pressure_sealevel;temperature;humidity
23473;BME280;11909;52.516;13.564;2023-05-09T00:00:38;101863.09;;;10.18;61.64
23473;BME280;11909;52.516;13.564;2023-05-09T00:03:06;101867.75;;;10.18;62.02
23473;BME280;11909;52.516;13.564;2023-05-09T00:05:34;101865.44;;;10.10;60.97
23473;BME280;11909;52.516;13.564;2023-05-09T00:08:03;101862.94;;;10.08;60.99
23473;BME280;11909;52.516;13.564;2023-05-09T00:10:32;101849.97;;;10.21;61.65
23473;BME280;11909;52.516;13.564;2023-05-09T00:12:59;101855.75;;;10.24;60.69
23473;BME280;11909;52.516;13.564;2023-05-09T00:15:28;101853.69;;;10.14;62.13
23473;BME280;11909;52.516;13.564;2023-05-09T00:17:57;101853.88;;;10.08;63.14
23473;BME280;11909;52.516;13.564;2023-05-09T00:20:25;101859.88;;;10.04;61.84
23473;BME280;11909;52.516;13.564;2023-05-09T00:22:54;101853.88;;;10.08;61.38
23473;BME280;11909;52.516;13.564;2023-05-09T00:25:22;101853.88;;;10.08;61.39
23473;BME280;11909;52.516;13.564;2023-05-09T00:27:51;101861.84;;;10.09;60.40
23473;BME280;11909;52.516;13.564;2023-05-09T00:30:19;101850.88;;;10.09;61.86
23473;BME280;11909;52.516;13.564;2023-05-09T00:32:47;101856.78;;;10.01;62.21
23473;BME280;11909;52.516;13.564;2023-05-09T00:35:15;101856.44;;;9.97;62.49
23473;BME280;11909;52.516;13.564;2023-05-09T00:37:43;101861.63;;;9.94;62.45
23473;BME280;11909;52.516;13.564;2023-05-09T00:40:12;101854.94;;;9.89;63.88
23473;BME280;11909;52.516;13.564;2023-05-09T00:42:39;101853.19;;;9.83;62.85
23473;BME280;11909;52.516;13.564;2023-05-09T00:45:10;101855.94;;;9.83;62.82
23473;BME280;11909;52.516;13.564;2023-05-09T00:47:42;101847.06;;;9.93;62.80
23473;BME280;11909;52.516;13.564;2023-05-09T00:50:11;101853.38;;;9.94;62.13
23473;BME280;11909;52.516;13.564;2023-05-09T00:52:39;101854.28;;;9.82;62.87
23473;BME280;11909;52.516;13.564;2023-05-09T00:55:08;101851.38;;;9.72;63.56
23473;BME280;11909;52.516;13.564;2023-05-09T00:57:36;101847.28;;;9.74;63.34
23473;BME280;11909;52.516;13.564;2023-05-09T01:00:05;101843.66;;;9.69;63.90
23473;BME280;11909;52.516;13.564;2023-05-09T01:02:40;101838.13;;;9.52;64.40
23473;BME280;11909;52.516;13.564;2023-05-09T01:05:09;101836.72;;;9.49;64.82
23473;BME280;11909;52.516;13.564;2023-05-09T01:07:42;101834.47;;;9.46;64.78
23473;BME280;11909;52.516;13.564;2023-05-09T01:10:17;101832.19;;;9.43;64.79
23473;BME280;11909;52.516;13.564;2023-05-09T01:12:54;101823.84;;;9.50;63.75
23473;BME280;11909;52.516;13.564;2023-05-09T01:15:28;101829.97;;;9.57;62.81
23473;BME280;11909;52.516;13.564;2023-05-09T01:18:05;101824.03;;;9.60;63.69
23473;BME280;11909;52.516;13.564;2023-05-09T01:20:37;101824.03;;;9.60;63.16
23473;BME280;11909;52.516;13.564;2023-05-09T01:23:19;101826.56;;;9.50;63.28
23473;BME280;11909;52.516;13.564;2023-05-09T01:25:56;101818.75;;;9.41;63.85
23473;BME280;11909;52.516;13.564;2023-05-09T01:28:35;101819.09;;;9.45;64.57
23473;BME280;11909;52.516;13.564;2023-05-09T01:31:32;101825.56;;;9.39;63.80
23473;BME280;11909;52.516;13.564;2023-05-09T01:34:01;101817.16;;;9.28;64.34
23473;BME280;11909;52.516;13.564;2023-05-09T01:36:32;101816.56;;;9.26;65.66
23473;BME280;11909;52.516;13.564;2023-05-09T01:39:05;101818.13;;;9.22;64.88
23473;BME280;11909;52.516;13.564;2023-05-09T01:41:35;101813.41;;;9.17;65.36
23473;BME280;11909;52.516;13.564;2023-05-09T01:44:07;101809.22;;;9.15;66.02
23473;BME280;11909;52.516;13.564;2023-05-09T01:46:38;101802.69;;;9.16;65.09
23473;BME280;11909;52.516;13.564;2023-05-09T01:49:07;101809.00;;;9.16;62.67
23473;BME280;11909;52.516;13.564;2023-05-09T01:51:36;101811.34;;;9.25;62.54
23473;BME280;11909;52.516;13.564;2023-05-09T01:54:09;101807.50;;;9.26;63.93
23473;BME280;11909;52.516;13.564;2023-05-09T01:56:39;101809.09;;;9.22;63.35
23473;BME280;11909;52.516;13.564;2023-05-09T01:59:10;101808.16;;;9.16;63.89
23473;BME280;11909;52.516;13.564;2023-05-09T02:01:43;101800.78;;;9.16;64.49
23473;BME280;11909;52.516;13.564;2023-05-09T02:04:12;101802.44;;;9.17;63.94
23473;BME280;11909;52.516;13.564;2023-05-09T02:06:43;101809.31;;;9.20;62.78
23473;BME280;11909;52.516;13.564;2023-05-09T02:09:12;101809.91;;;9.22;63.28
23473;BME280;11909;52.516;13.564;2023-05-09T02:11:40;101810.41;;;9.19;62.31
23473;BME280;11909;52.516;13.564;2023-05-09T02:14:08;101817.41;;;9.27;59.09
23473;BME280;11909;52.516;13.564;2023-05-09T02:16:36;101818.06;;;9.34;59.44
23473;BME280;11909;52.516;13.564;2023-05-09T02:19:06;101816.09;;;9.29;58.89
23473;BME280;11909;52.516;13.564;2023-05-09T02:21:34;101811.03;;;9.38;59.52
23473;BME280;11909;52.516;13.564;2023-05-09T02:24:04;101804.13;;;9.36;59.85
23473;BME280;11909;52.516;13.564;2023-05-09T02:26:33;101814.88;;;9.37;59.23
23473;BME280;11909;52.516;13.564;2023-05-09T02:29:04;101810.53;;;9.41;59.15
23473;BME280;11909;52.516;13.564;2023-05-09T02:31:33;101814.00;;;9.37;59.30
23473;BME280;11909;52.516;13.564;2023-05-09T02:34:02;101809.25;;;9.32;61.00
23473;BME280;11909;52.516;13.564;2023-05-09T02:36:33;101813.94;;;9.31;60.31
23473;BME280;11909;52.516;13.564;2023-05-09T02:39:01;101809.84;;;9.34;59.36
23473;BME280;11909;52.516;13.564;2023-05-09T02:41:29;101813.09;;;9.31;57.66
23473;BME280;11909;52.516;13.564;2023-05-09T02:43:57;101807.47;;;9.38;58.43
23473;BME280;11909;52.516;13.564;2023-05-09T02:46:25;101819.25;;;9.38;57.94
23473;BME280;11909;52.516;13.564;2023-05-09T02:48:53;101821.50;;;9.41;57.68
23473;BME280;11909;52.516;13.564;2023-05-09T02:51:21;101823.66;;;9.39;57.34
23473;BME280;11909;52.516;13.564;2023-05-09T02:53:50;101820.50;;;9.30;58.84
23473;BME280;11909;52.516;13.564;2023-05-09T02:56:17;101812.25;;;9.30;58.72
23473;BME280;11909;52.516;13.564;2023-05-09T02:58:46;101818.91;;;9.35;57.66
23473;BME280;11909;52.516;13.564;2023-05-09T03:01:16;101816.56;;;9.26;58.33
23473;BME280;11909;52.516;13.564;2023-05-09T03:03:44;101810.75;;;9.23;59.57
23473;BME280;11909;52.516;13.564;2023-05-09T03:06:12;101823.84;;;9.21;58.62
23473;BME280;11909;52.516;13.564;2023-05-09T03:08:40;101816.88;;;9.13;59.14
23473;BME280;11909;52.516;13.564;2023-05-09T03:11:09;101824.50;;;9.11;59.09
23473;BME280;11909;52.516;13.564;2023-05-09T03:13:37;101812.38;;;9.07;57.99
23473;BME280;11909;52.516;13.564;2023-05-09T03:16:05;101804.97;;;9.07;58.19
23473;BME280;11909;52.516;13.564;2023-05-09T03:18:33;101811.66;;;9.11;59.86
23473;BME280;11909;52.516;13.564;2023-05-09T03:21:01;101797.34;;;9.09;60.50
23473;BME280;11909;52.516;13.564;2023-05-09T03:23:29;101794.19;;;9.00;60.96
23473;BME280;11909;52.516;13.564;2023-05-09T03:25:57;101800.13;;;8.97;61.44
23473;BME280;11909;52.516;13.564;2023-05-09T03:28:27;101800.63;;;8.94;61.36
23473;BME280;11909;52.516;13.564;2023-05-09T03:30:54;101788.88;;;8.82;62.75
23473;BME280;11909;52.516;13.564;2023-05-09T03:33:22;101796.16;;;8.76;61.83
23473;BME280;11909;52.516;13.564;2023-05-09T03:35:50;101796.16;;;8.76;62.00
23473;BME280;11909;52.516;13.564;2023-05-09T03:38:18;101798.44;;;8.67;62.40
23473;BME280;11909;52.516;13.564;2023-05-09T03:40:46;101791.88;;;8.68;63.39
23473;BME280;11909;52.516;13.564;2023-05-09T03:43:14;101791.06;;;8.68;62.25
23473;BME280;11909;52.516;13.564;2023-05-09T03:45:43;101803.91;;;8.67;62.52
23473;BME280;11909;52.516;13.564;2023-05-09T03:48:11;101794.66;;;8.56;63.99
23473;BME280;11909;52.516;13.564;2023-05-09T03:50:39;101796.91;;;8.59;64.11
23473;BME280;11909;52.516;13.564;2023-05-09T03:53:08;101797.16;;;8.46;63.43
23473;BME280;11909;52.516;13.564;2023-05-09T03:55:35;101798.69;;;8.42;63.00
23473;BME280;11909;52.516;13.564;2023-05-09T03:58:03;101797.16;;;8.34;63.27
23473;BME280;11909;52.516;13.564;2023-05-09T04:00:31;101794.53;;;8.27;64.78
23473;BME280;11909;52.516;13.564;2023-05-09T04:03:00;101788.00;;;8.16;65.09
23473;BME280;11909;52.516;13.564;2023-05-09T04:05:28;101787.31;;;8.21;65.20
23473;BME280;11909;52.516;13.564;2023-05-09T04:07:56;101780.75;;;8.22;64.84
23473;BME280;11909;52.516;13.564;2023-05-09T04:10:24;101779.22;;;8.26;65.11
23473;BME280;11909;52.516;13.564;2023-05-09T04:12:52;101784.69;;;8.14;65.22
23473;BME280;11909;52.516;13.564;2023-05-09T04:15:20;101784.56;;;8.09;65.19
23473;BME280;11909;52.516;13.564;2023-05-09T04:17:48;101788.72;;;8.12;65.61
23473;BME280;11909;52.516;13.564;2023-05-09T04:20:17;101783.63;;;8.15;65.47
23473;BME280;11909;52.516;13.564;2023-05-09T04:22:45;101779.94;;;8.10;66.44
23473;BME280;11909;52.516;13.564;2023-05-09T04:25:13;101776.72;;;8.13;65.75
23473;BME280;11909;52.516;13.564;2023-05-09T04:27:42;101781.59;;;8.23;64.55
23473;BME280;11909;52.516;13.564;2023-05-09T04:30:11;101781.81;;;8.33;64.51
23473;BME280;11909;52.516;13.564;2023-05-09T04:32:38;101789.88;;;8.28;64.75
23473;BME280;11909;52.516;13.564;2023-05-09T04:35:11;101780.19;;;8.20;66.60
23473;BME280;11909;52.516;13.564;2023-05-09T04:37:40;101783.50;;;8.22;67.35
23473;BME280;11909;52.516;13.564;2023-05-09T04:40:09;101780.97;;;8.32;64.90
23473;BME280;11909;52.516;13.564;2023-05-09T04:42:37;101788.22;;;8.39;65.10
23473;BME280;11909;52.516;13.564;2023-05-09T04:45:06;101781.69;;;8.52;64.43
23473;BME280;11909;52.516;13.564;2023-05-09T04:47:34;101779.91;;;8.57;62.96
23473;BME280;11909;52.516;13.564;2023-05-09T04:50:03;101783.81;;;8.61;65.15
23473;BME280;11909;52.516;13.564;2023-05-09T04:52:31;101774.28;;;8.64;65.02
23473;BME280;11909;52.516;13.564;2023-05-09T04:55:00;101768.34;;;8.67;65.74
23473;BME280;11909;52.516;13.564;2023-05-09T04:57:28;101774.03;;;8.78;66.49
23473;BME280;11909;52.516;13.564;2023-05-09T04:59:56;101772.25;;;8.71;66.52
23473;BME280;11909;52.516;13.564;2023-05-09T05:02:24;101774.16;;;8.71;64.16
23473;BME280;11909;52.516;13.564;2023-05-09T05:04:52;101786.50;;;8.73;65.39
23473;BME280;11909;52.516;13.564;2023-05-09T05:07:35;101783.69;;;8.68;64.55
23473;BME280;11909;52.516;13.564;2023-05-09T05:10:06;101774.28;;;8.64;64.39
23473;BME280;11909;52.516;13.564;2023-05-09T05:12:34;101783.78;;;8.73;62.15
23473;BME280;11909;52.516;13.564;2023-05-09T05:15:02;101779.06;;;8.69;63.53
23473;BME280;11909;52.516;13.564;2023-05-09T05:17:30;101774.28;;;8.64;62.76
23473;BME280;11909;52.516;13.564;2023-05-09T05:19:59;101781.88;;;8.74;63.39
23473;BME280;11909;52.516;13.564;2023-05-09T05:22:28;101781.34;;;8.89;61.95
23473;BME280;11909;52.516;13.564;2023-05-09T05:24:58;101774.91;;;8.95;64.02
23473;BME280;11909;52.516;13.564;2023-05-09T05:27:27;101777.34;;;9.09;61.94
23473;BME280;11909;52.516;13.564;2023-05-09T05:29:56;101780.19;;;9.14;60.91
23473;BME280;11909;52.516;13.564;2023-05-09T05:32:24;101773.47;;;9.22;61.77
23473;BME280;11909;52.516;13.564;2023-05-09T05:34:51;101771.75;;;9.32;62.27
23473;BME280;11909;52.516;13.564;2023-05-09T05:37:19;101776.31;;;9.44;60.70
23473;BME280;11909;52.516;13.564;2023-05-09T05:39:47;101775.09;;;9.52;60.82
23473;BME280;11909;52.516;13.564;2023-05-09T05:42:17;101778.59;;;9.64;59.70
23473;BME280;11909;52.516;13.564;2023-05-09T05:44:46;101766.63;;;9.70;59.93
23473;BME280;11909;52.516;13.564;2023-05-09T05:47:14;101771.69;;;9.79;58.96
23473;BME280;11909;52.516;13.564;2023-05-09T05:49:42;101773.69;;;9.83;58.35
23473;BME280;11909;52.516;13.564;2023-05-09T05:52:10;101776.97;;;10.02;56.85
23473;BME280;11909;52.516;13.564;2023-05-09T05:54:37;101761.88;;;10.00;58.81
23473;BME280;11909;52.516;13.564;2023-05-09T05:57:05;101752.06;;;10.04;60.38
23473;BME280;11909;52.516;13.564;2023-05-09T05:59:33;101750.47;;;10.08;60.10
23473;BME280;11909;52.516;13.564;2023-05-09T06:02:02;101753.03;;;10.15;58.48
23473;BME280;11909;52.516;13.564;2023-05-09T06:04:31;101751.84;;;10.28;57.38
23473;BME280;11909;52.516;13.564;2023-05-09T06:06:58;101755.56;;;10.39;56.73
23473;BME280;11909;52.516;13.564;2023-05-09T06:09:26;101755.56;;;10.39;58.10
23473;BME280;11909;52.516;13.564;2023-05-09T06:11:54;101752.09;;;10.43;57.56
23473;BME280;11909;52.516;13.564;2023-05-09T06:14:22;101750.59;;;10.58;54.97
23473;BME280;11909;52.516;13.564;2023-05-09T06:16:50;101746.00;;;10.64;54.68
23473;BME280;11909;52.516;13.564;2023-05-09T06:19:20;101742.75;;;10.67;55.00
23473;BME280;11909;52.516;13.564;2023-05-09T06:21:47;101736.69;;;10.65;55.67
23473;BME280;11909;52.516;13.564;2023-05-09T06:24:15;101723.66;;;10.77;55.91
23473;BME280;11909;52.516;13.564;2023-05-09T06:27:00;101735.88;;;10.92;54.36
23473;BME280;11909;52.516;13.564;2023-05-09T06:29:28;101733.47;;;10.95;53.59
23473;BME280;11909;52.516;13.564;2023-05-09T06:31:56;101726.63;;;10.98;53.23
23473;BME280;11909;52.516;13.564;2023-05-09T06:34:25;101715.00;;;10.90;55.38
23473;BME280;11909;52.516;13.564;2023-05-09T06:36:53;101717.34;;;11.04;54.86
23473;BME280;11909;52.516;13.564;2023-05-09T06:39:21;101725.94;;;11.13;52.70
23473;BME280;11909;52.516;13.564;2023-05-09T06:41:49;101724.84;;;11.14;51.99
23473;BME280;11909;52.516;13.564;2023-05-09T06:44:17;101732.72;;;11.05;52.15
23473;BME280;11909;52.516;13.564;2023-05-09T06:46:45;101725.91;;;11.08;52.34
23473;BME280;11909;52.516;13.564;2023-05-09T06:49:13;101709.72;;;11.11;52.82
23473;BME280;11909;52.516;13.564;2023-05-09T06:51:42;101709.19;;;11.14;52.85
23473;BME280;11909;52.516;13.564;2023-05-09T06:54:10;101710.59;;;11.17;54.55
23473;BME280;11909;52.516;13.564;2023-05-09T06:56:38;101703.53;;;11.26;54.71
23473;BME280;11909;52.516;13.564;2023-05-09T06:59:06;101709.09;;;11.31;51.89
23473;BME280;11909;52.516;13.564;2023-05-09T07:01:38;101703.88;;;11.35;51.68
23473;BME280;11909;52.516;13.564;2023-05-09T07:04:06;101696.50;;;11.41;52.90
23473;BME280;11909;52.516;13.564;2023-05-09T07:06:34;101698.75;;;11.49;50.41
23473;BME280;11909;52.516;13.564;2023-05-09T07:09:03;101687.72;;;11.44;50.06
23473;BME280;11909;52.516;13.564;2023-05-09T07:11:33;101678.97;;;11.52;51.65
23473;BME280;11909;52.516;13.564;2023-05-09T07:14:01;101677.97;;;11.64;52.27
23473;BME280;11909;52.516;13.564;2023-05-09T07:16:29;101674.72;;;11.72;50.38
23473;BME280;11909;52.516;13.564;2023-05-09T07:18:57;101669.06;;;11.89;49.39
23473;BME280;11909;52.516;13.564;2023-05-09T07:21:25;101669.09;;;11.99;47.78
23473;BME280;11909;52.516;13.564;2023-05-09T07:23:52;101674.59;;;11.94;48.63
23473;BME280;11909;52.516;13.564;2023-05-09T07:26:23;101670.03;;;12.15;47.32
23473;BME280;11909;52.516;13.564;2023-05-09T07:28:50;101662.56;;;12.05;47.46
23473;BME280;11909;52.516;13.564;2023-05-09T07:31:18;101657.69;;;12.18;46.91
23473;BME280;11909;52.516;13.564;2023-05-09T07:33:46;101663.97;;;12.13;46.38
23473;BME280;11909;52.516;13.564;2023-05-09T07:36:14;101657.69;;;12.28;48.67
23473;BME280;11909;52.516;13.564;2023-05-09T07:38:42;101651.69;;;12.37;47.48
23473;BME280;11909;52.516;13.564;2023-05-09T07:41:10;101655.56;;;12.56;46.15
23473;BME280;11909;52.516;13.564;2023-05-09T07:43:39;101638.53;;;12.59;46.38
23473;BME280;11909;52.516;13.564;2023-05-09T07:46:07;101636.88;;;12.64;45.98
23473;BME280;11909;52.516;13.564;2023-05-09T07:48:35;101628.63;;;12.74;46.26
23473;BME280;11909;52.516;13.564;2023-05-09T07:51:03;101631.69;;;12.93;45.16
23473;BME280;11909;52.516;13.564;2023-05-09T07:53:31;101627.53;;;13.01;45.52
23473;BME280;11909;52.516;13.564;2023-05-09T07:55:59;101620.66;;;13.09;45.58
23473;BME280;11909;52.516;13.564;2023-05-09T07:58:27;101626.97;;;13.25;43.81
23473;BME280;11909;52.516;13.564;2023-05-09T08:00:56;101612.66;;;13.33;43.55
23473;BME280;11909;52.516;13.564;2023-05-09T08:03:24;101612.66;;;13.38;43.55
23473;BME280;11909;52.516;13.564;2023-05-09T08:05:52;101620.13;;;13.43;42.19
23473;BME280;11909;52.516;13.564;2023-05-09T08:08:22;101603.00;;;13.46;42.32
23473;BME280;11909;52.516;13.564;2023-05-09T08:10:50;101608.50;;;13.56;42.23
23473;BME280;11909;52.516;13.564;2023-05-09T08:13:17;101609.56;;;13.60;41.62
23473;BME280;11909;52.516;13.564;2023-05-09T08:15:46;101607.38;;;13.68;41.95
23473;BME280;11909;52.516;13.564;2023-05-09T08:18:16;101601.25;;;13.76;41.80
23473;BME280;11909;52.516;13.564;2023-05-09T08:20:43;101603.16;;;13.96;41.32
23473;BME280;11909;52.516;13.564;2023-05-09T08:23:11;101597.59;;;14.01;42.61
23473;BME280;11909;52.516;13.564;2023-05-09T08:25:40;101595.63;;;14.12;40.97
23473;BME280;11909;52.516;13.564;2023-05-09T08:28:08;101589.78;;;14.14;40.32
23473;BME280;11909;52.516;13.564;2023-05-09T08:30:36;101582.50;;;14.33;40.24
23473;BME280;11909;52.516;13.564;2023-05-09T08:33:04;101586.88;;;14.45;40.23
23473;BME280;11909;52.516;13.564;2023-05-09T08:35:34;101581.56;;;14.48;39.31
23473;BME280;11909;52.516;13.564;2023-05-09T08:38:02;101579.13;;;14.47;39.78
23473;BME280;11909;52.516;13.564;2023-05-09T08:40:34;101584.09;;;14.45;38.96
23473;BME280;11909;52.516;13.564;2023-05-09T08:43:03;101590.69;;;14.49;40.24
23473;BME280;11909;52.516;13.564;2023-05-09T08:45:34;101582.34;;;14.59;39.93
23473;BME280;11909;52.516;13.564;2023-05-09T08:48:06;101579.22;;;14.76;39.63
23473;BME280;11909;52.516;13.564;2023-05-09T08:50:36;101575.44;;;14.97;42.15
23473;BME280;11909;52.516;13.564;2023-05-09T08:53:06;101571.38;;;15.18;42.56
23473;BME280;11909;52.516;13.564;2023-05-09T08:55:34;101583.22;;;15.48;39.00
23473;BME280;11909;52.516;13.564;2023-05-09T08:58:02;101574.25;;;15.62;38.55
23473;BME280;11909;52.516;13.564;2023-05-09T09:00:32;101575.22;;;15.71;37.96
23473;BME280;11909;52.516;13.564;2023-05-09T09:03:01;101564.84;;;15.82;39.01
23473;BME280;11909;52.516;13.564;2023-05-09T09:05:30;101562.56;;;15.89;39.27
23473;BME280;11909;52.516;13.564;2023-05-09T09:08:08;101559.59;;;16.05;39.09
23473;BME280;11909;52.516;13.564;2023-05-09T09:10:40;101564.47;;;16.13;37.38
23473;BME280;11909;52.516;13.564;2023-05-09T09:13:09;101566.28;;;16.23;38.05
23473;BME280;11909;52.516;13.564;2023-05-09T09:15:40;101574.22;;;16.30;37.70
23473;BME280;11909;52.516;13.564;2023-05-09T09:18:11;101557.50;;;16.35;37.71
23473;BME280;11909;52.516;13.564;2023-05-09T09:20:45;101558.41;;;16.49;38.04
23473;BME280;11909;52.516;13.564;2023-05-09T09:23:18;101545.81;;;16.57;38.53
23473;BME280;11909;52.516;13.564;2023-05-09T09:25:46;101560.53;;;16.72;37.50
23473;BME280;11909;52.516;13.564;2023-05-09T09:28:14;101539.47;;;16.90;37.94
23473;BME280;11909;52.516;13.564;2023-05-09T09:30:43;101553.16;;;17.00;35.70
23473;BME280;11909;52.516;13.564;2023-05-09T09:33:18;101550.91;;;17.02;35.90
23473;BME280;11909;52.516;13.564;2023-05-09T09:35:47;101556.78;;;17.01;34.64
23473;BME280;11909;52.516;13.564;2023-05-09T09:38:18;101554.34;;;16.94;34.38
23473;BME280;11909;52.516;13.564;2023-05-09T09:40:53;101550.91;;;17.02;34.56
23473;BME280;11909;52.516;13.564;2023-05-09T09:43:26;101544.47;;;17.07;35.17
23473;BME280;11909;52.516;13.564;2023-05-09T09:45:55;101534.13;;;17.27;35.69
23473;BME280;11909;52.516;13.564;2023-05-09T09:48:24;101543.56;;;17.40;33.30
23473;BME280;11909;52.516;13.564;2023-05-09T09:50:53;101539.25;;;17.61;34.21
23473;BME280;11909;52.516;13.564;2023-05-09T09:53:25;101531.31;;;17.69;33.72
23473;BME280;11909;52.516;13.564;2023-05-09T09:55:55;101529.38;;;17.69;35.06
23473;BME280;11909;52.516;13.564;2023-05-09T09:58:24;101520.53;;;17.81;34.55
23473;BME280;11909;52.516;13.564;2023-05-09T10:01:04;101504.25;;;18.02;32.69
23473;BME280;11909;52.516;13.564;2023-05-09T10:03:35;101513.28;;;18.08;33.23
23473;BME280;11909;52.516;13.564;2023-05-09T10:06:03;101525.41;;;18.12;30.86
23473;BME280;11909;52.516;13.564;2023-05-09T10:08:32;101524.28;;;17.99;29.34
23473;BME280;11909;52.516;13.564;2023-05-09T10:11:01;101525.53;;;17.93;30.05
23473;BME280;11909;52.516;13.564;2023-05-09T10:13:29;101529.53;;;17.87;30.66
23473;BME280;11909;52.516;13.564;2023-05-09T10:15:58;101502.72;;;17.82;34.71
23473;BME280;11909;52.516;13.564;2023-05-09T10:18:27;101502.38;;;17.98;31.76
23473;BME280;11909;52.516;13.564;2023-05-09T10:20:57;101491.44;;;18.15;33.42
23473;BME280;11909;52.516;13.564;2023-05-09T10:23:33;101503.97;;;18.27;30.50
23473;BME280;11909;52.516;13.564;2023-05-09T10:26:08;101502.44;;;18.20;30.19
23473;BME280;11909;52.516;13.564;2023-05-09T10:28:40;101489.94;;;18.09;30.63
23473;BME280;11909;52.516;13.564;2023-05-09T10:31:15;101483.84;;;18.44;32.12
23473;BME280;11909;52.516;13.564;2023-05-09T10:33:46;101477.84;;;18.51;31.22
23473;BME280;11909;52.516;13.564;2023-05-09T10:36:17;101470.13;;;18.79;36.00
23473;BME280;11909;52.516;13.564;2023-05-09T10:38:47;101469.28;;;19.01;31.72
23473;BME280;11909;52.516;13.564;2023-05-09T10:41:16;101474.75;;;19.15;32.36
23473;BME280;11909;52.516;13.564;2023-05-09T10:43:45;101473.47;;;19.22;29.96
23473;BME280;11909;52.516;13.564;2023-05-09T10:46:13;101473.56;;;19.08;30.00
23473;BME280;11909;52.516;13.564;2023-05-09T10:48:42;101475.50;;;18.98;29.63
23473;BME280;11909;52.516;13.564;2023-05-09T10:51:11;101475.28;;;18.95;29.36
23473;BME280;11909;52.516;13.564;2023-05-09T10:53:40;101471.00;;;18.88;31.70
23473;BME280;11909;52.516;13.564;2023-05-09T10:56:21;101451.81;;;19.10;31.34
23473;BME280;11909;52.516;13.564;2023-05-09T10:58:49;101453.66;;;19.23;32.11
23473;BME280;11909;52.516;13.564;2023-05-09T11:01:28;101460.09;;;19.41;28.96
23473;BME280;11909;52.516;13.564;2023-05-09T11:04:15;101476.50;;;19.43;30.58
23473;BME280;11909;52.516;13.564;2023-05-09T11:06:46;101451.19;;;19.22;28.77
23473;BME280;11909;52.516;13.564;2023-05-09T11:09:29;101442.06;;;19.21;32.97
23473;BME280;11909;52.516;13.564;2023-05-09T11:12:08;101442.06;;;19.21;29.98
23473;BME280;11909;52.516;13.564;2023-05-09T11:14:41;101420.47;;;19.35;32.87
23473;BME280;11909;52.516;13.564;2023-05-09T11:17:11;101422.94;;;19.46;30.49
23473;BME280;11909;52.516;13.564;2023-05-09T11:19:59;101423.94;;;19.50;31.91
23473;BME280;11909;52.516;13.564;2023-05-09T11:22:29;101419.34;;;19.45;30.22
23473;BME280;11909;52.516;13.564;2023-05-09T11:25:02;101423.25;;;19.27;31.03
23473;BME280;11909;52.516;13.564;2023-05-09T11:27:43;101422.78;;;19.42;33.71
23473;BME280;11909;52.516;13.564;2023-05-09T11:30:13;101407.53;;;19.31;32.63
23473;BME280;11909;52.516;13.564;2023-05-09T11:32:46;101397.72;;;19.51;31.47
23473;BME280;11909;52.516;13.564;2023-05-09T11:35:15;101393.00;;;19.43;31.04
23473;BME280;11909;52.516;13.564;2023-05-09T11:37:46;101383.50;;;19.53;34.46
23473;BME280;11909;52.516;13.564;2023-05-09T11:40:15;101385.47;;;19.61;32.19
23473;BME280;11909;52.516;13.564;2023-05-09T11:42:46;101358.94;;;19.72;33.62
23473;BME280;11909;52.516;13.564;2023-05-09T11:45:16;101361.88;;;19.85;31.25
23473;BME280;11909;52.516;13.564;2023-05-09T11:47:44;101379.94;;;19.96;30.49
23473;BME280;11909;52.516;13.564;2023-05-09T11:50:15;101362.34;;;19.87;30.34
23473;BME280;11909;52.516;13.564;2023-05-09T11:52:43;101366.50;;;19.98;28.75
23473;BME280;11909;52.516;13.564;2023-05-09T11:55:13;101350.25;;;19.74;29.03
23473;BME280;11909;52.516;13.564;2023-05-09T11:57:45;101348.13;;;19.88;30.65
23473;BME280;11909;52.516;13.564;2023-05-09T12:00:15;101346.31;;;20.10;29.72
23473;BME280;11909;52.516;13.564;2023-05-09T12:02:44;101346.63;;;20.00;28.92
23473;BME280;11909;52.516;13.564;2023-05-09T12:05:15;101342.69;;;20.10;32.02
23473;BME280;11909;52.516;13.564;2023-05-09T12:07:43;101339.22;;;20.22;32.12
23473;BME280;11909;52.516;13.564;2023-05-09T12:10:14;101333.00;;;20.16;32.12
23473;BME280;11909;52.516;13.564;2023-05-09T12:12:44;101336.72;;;20.29;29.43
23473;BME280;11909;52.516;13.564;2023-05-09T12:15:14;101333.13;;;20.28;28.65
23473;BME280;11909;52.516;13.564;2023-05-09T12:17:44;101323.44;;;20.34;27.86
23473;BME280;11909;52.516;13.564;2023-05-09T12:20:15;101305.88;;;20.43;30.75
23473;BME280;11909;52.516;13.564;2023-05-09T12:22:43;101298.31;;;20.73;33.87
23473;BME280;11909;52.516;13.564;2023-05-09T12:25:11;101296.38;;;21.04;32.11
23473;BME280;11909;52.516;13.564;2023-05-09T12:27:40;101303.72;;;21.09;31.00
23473;BME280;11909;52.516;13.564;2023-05-09T12:30:09;101317.63;;;21.17;28.57
23473;BME280;11909;52.516;13.564;2023-05-09T12:32:40;101293.31;;;21.18;28.63
23473;BME280;11909;52.516;13.564;2023-05-09T12:35:09;101300.41;;;21.15;28.19
23473;BME280;11909;52.516;13.564;2023-05-09T12:37:37;101285.56;;;21.24;29.40
23473;BME280;11909;52.516;13.564;2023-05-09T12:40:07;101303.16;;;20.94;27.47
23473;BME280;11909;52.516;13.564;2023-05-09T12:42:38;101272.16;;;20.96;30.58
23473;BME280;11909;52.516;13.564;2023-05-09T12:45:10;101293.59;;;20.74;27.68
23473;BME280;11909;52.516;13.564;2023-05-09T12:47:40;101270.22;;;20.87;31.23
23473;BME280;11909;52.516;13.564;2023-05-09T12:50:09;101284.16;;;20.87;27.35
23473;BME280;11909;52.516;13.564;2023-05-09T12:52:40;101266.72;;;20.99;30.06
23473;BME280;11909;52.516;13.564;2023-05-09T12:55:28;101282.06;;;20.84;28.84